Wotan — V2CA5 — position and weather

sailwx.info

Track history (hours):
 
Tides and Currents Weather Stations Pressure Air Temp Water Temp Dewpoint Dewpoint Depression Visibility Wind Speed Wind Dir Waves Ship Positions

Wotan

Last reported at 2014-Aug-29 10:33 UTC. Time now 2014-Aug-30 08:32 UTC.
Position N 36°45' W 008°08'.

Length 100 m; draft 5.9 m.

Type: Cargo ship. MMSI: 304195000.

Date/timePositionNaut miles runAvg speedWind from/ knotsBaromVisibWave heightAir tempDewpointWater temp
2014-Aug-29 10:33N 36°45' W 008°08'10 9.5
2014-Aug-29 09:33N 36°43' W 008°20'10 9.9
2014-Aug-29 08:33N 36°40' W 008°32'9 9.1
2014-Aug-29 07:33N 36°37' W 008°43'10 8.7
2014-Aug-29 06:26N 36°34' W 008°54'7 8.3
2014-Aug-29 05:33N 36°31' W 009°02'8 8.2
2014-Aug-29 04:33N 36°32' W 009°12'8 7.9
2014-Aug-29 03:34N 36°36' W 009°21'9 8.0
2014-Aug-29 02:23N 36°43' W 009°29'7 8.1
2014-Aug-29 01:32N 36°49' W 009°33'9 8.7
2014-Aug-29 00:32N 36°58' W 009°36'  
2014-Aug-25 04:33N 48°48' W 005°52'233 8.3
2014-Aug-24 00:33N 50°28' W 000°28'29 9.1
2014-Aug-23 21:19N 50°35' E 000°17'6 7.2
2014-Aug-23 20:33N 50°36' E 000°25'6 6.3
2014-Aug-23 19:33N 50°38' E 000°35'142 8.4
2014-Aug-23 02:32N 52°23' E 003°10'7 7.3
2014-Aug-23 01:34N 52°28' E 003°17'50 8.0
2014-Aug-22 19:17N 53°05' E 004°14'33 6.8
2014-Aug-22 14:30N 53°31' E 004°47'6 6.4
2014-Aug-22 13:33N 53°33' E 004°57'7 7.2
2014-Aug-22 12:33N 53°35' E 005°08'8 7.8
2014-Aug-22 11:33N 53°37' E 005°21'8 7.7
2014-Aug-22 10:34N 53°40' E 005°33'7 6.9
2014-Aug-22 09:33N 53°42' E 005°44'6 6.4
2014-Aug-22 08:33N 53°44' E 005°54'7 5.9
2014-Aug-22 07:19N 53°46' E 006°06'51 6.6
2014-Aug-21 23:33N 53°60' E 007°29'8 7.9
2014-Aug-21 22:33N 54°01' E 007°42'8 7.7
2014-Aug-21 21:34N 54°01' E 007°56'8 7.5
2014-Aug-21 20:27N 54°01' E 008°10'7 7.4
2014-Aug-21 19:33N 53°60' E 008°21'8 7.6
2014-Aug-21 18:33N 53°58' E 008°34'7 7.3
2014-Aug-21 17:33N 53°53' E 008°43'9 9.2
2014-Aug-21 16:33N 53°51' E 008°58'7 6.9
2014-Aug-21 15:34N 53°54' E 009°09'2 1.7
2014-Aug-21 14:33N 53°55' E 009°11'0 0.0
2014-Aug-21 13:33N 53°55' E 009°11'0 0.0
2014-Aug-21 12:33N 53°55' E 009°11'0 0.0
2014-Aug-21 11:33N 53°55' E 009°11'3 2.7
2014-Aug-21 10:33N 53°57' E 009°14'8 8.5
2014-Aug-21 09:34N 54°05' E 009°19'5 5.0
2014-Aug-21 08:31N 54°09' E 009°23'6 4.5
2014-Aug-21 07:05N 54°12' E 009°33'70 6.0
2014-Aug-20 19:29N 54°31' E 011°28'6 6.7
2014-Aug-20 18:33N 54°28' E 011°38'7 6.5
2014-Aug-20 17:33N 54°27' E 011°49'7 7.2
2014-Aug-20 16:31N 54°27' E 012°01'6 6.2
2014-Aug-20 15:33N 54°29' E 012°11'8 7.8
2014-Aug-20 14:33N 54°37' E 012°15'8 7.4
2014-Aug-20 13:27N 54°41' E 012°27'7 7.8
2014-Aug-20 12:33N 54°45' E 012°37'8 7.0
2014-Aug-20 11:28N 54°48' E 012°49'6 7.1
2014-Aug-20 10:33N 54°47' E 013°00'7 6.8
2014-Aug-20 09:34N 54°47' E 013°12'7 7.0
2014-Aug-20 08:33N 54°47' E 013°24'7 7.0
2014-Aug-20 07:33N 54°46' E 013°36'7 7.3
2014-Aug-20 06:33N 54°44' E 013°48'7 6.7
2014-Aug-20 05:33N 54°42' E 013°60'6 6.3
2014-Aug-20 04:33N 54°41' E 014°10'  
Track history (hours):
 
Tides and Currents Weather Stations Pressure Air Temp Water Temp Dewpoint Dewpoint Depression Visibility Wind Speed Wind Dir Waves Ship Positions

Wotan

Last reported at 2014-Aug-29 10:33 UTC. Time now 2014-Aug-30 08:32 UTC.
Position N 36°45' W 008°08'.

Length 100 m; draft 5.9 m.

Type: Cargo ship. MMSI: 304195000.

Date/timePositionNaut miles runAvg speedWind from/ knotsBaromVisibWave heightAir tempDewpointWater temp
2014-Aug-29 10:33N 36°45' W 008°08'10 9.5
2014-Aug-29 09:33N 36°43' W 008°20'10 9.9
2014-Aug-29 08:33N 36°40' W 008°32'9 9.1
2014-Aug-29 07:33N 36°37' W 008°43'10 8.7
2014-Aug-29 06:26N 36°34' W 008°54'7 8.3
2014-Aug-29 05:33N 36°31' W 009°02'8 8.2
2014-Aug-29 04:33N 36°32' W 009°12'8 7.9
2014-Aug-29 03:34N 36°36' W 009°21'9 8.0
2014-Aug-29 02:23N 36°43' W 009°29'7 8.1
2014-Aug-29 01:32N 36°49' W 009°33'9 8.7
2014-Aug-29 00:32N 36°58' W 009°36'  
2014-Aug-25 04:33N 48°48' W 005°52'233 8.3
2014-Aug-24 00:33N 50°28' W 000°28'29 9.1
2014-Aug-23 21:19N 50°35' E 000°17'6 7.2
2014-Aug-23 20:33N 50°36' E 000°25'6 6.3
2014-Aug-23 19:33N 50°38' E 000°35'142 8.4
2014-Aug-23 02:32N 52°23' E 003°10'7 7.3
2014-Aug-23 01:34N 52°28' E 003°17'50 8.0
2014-Aug-22 19:17N 53°05' E 004°14'33 6.8
2014-Aug-22 14:30N 53°31' E 004°47'6 6.4
2014-Aug-22 13:33N 53°33' E 004°57'7 7.2
2014-Aug-22 12:33N 53°35' E 005°08'8 7.8
2014-Aug-22 11:33N 53°37' E 005°21'8 7.7
2014-Aug-22 10:34N 53°40' E 005°33'7 6.9
2014-Aug-22 09:33N 53°42' E 005°44'6 6.4
2014-Aug-22 08:33N 53°44' E 005°54'7 5.9
2014-Aug-22 07:19N 53°46' E 006°06'51 6.6
2014-Aug-21 23:33N 53°60' E 007°29'8 7.9
2014-Aug-21 22:33N 54°01' E 007°42'8 7.7
2014-Aug-21 21:34N 54°01' E 007°56'8 7.5
2014-Aug-21 20:27N 54°01' E 008°10'7 7.4
2014-Aug-21 19:33N 53°60' E 008°21'8 7.6
2014-Aug-21 18:33N 53°58' E 008°34'7 7.3
2014-Aug-21 17:33N 53°53' E 008°43'9 9.2
2014-Aug-21 16:33N 53°51' E 008°58'7 6.9
2014-Aug-21 15:34N 53°54' E 009°09'2 1.7
2014-Aug-21 14:33N 53°55' E 009°11'0 0.0
2014-Aug-21 13:33N 53°55' E 009°11'0 0.0
2014-Aug-21 12:33N 53°55' E 009°11'0 0.0
2014-Aug-21 11:33N 53°55' E 009°11'3 2.7
2014-Aug-21 10:33N 53°57' E 009°14'8 8.5
2014-Aug-21 09:34N 54°05' E 009°19'5 5.0
2014-Aug-21 08:31N 54°09' E 009°23'6 4.5
2014-Aug-21 07:05N 54°12' E 009°33'70 6.0
2014-Aug-20 19:29N 54°31' E 011°28'6 6.7
2014-Aug-20 18:33N 54°28' E 011°38'7 6.5
2014-Aug-20 17:33N 54°27' E 011°49'7 7.2
2014-Aug-20 16:31N 54°27' E 012°01'6 6.2
2014-Aug-20 15:33N 54°29' E 012°11'8 7.8
2014-Aug-20 14:33N 54°37' E 012°15'8 7.4
2014-Aug-20 13:27N 54°41' E 012°27'7 7.8
2014-Aug-20 12:33N 54°45' E 012°37'8 7.0
2014-Aug-20 11:28N 54°48' E 012°49'6 7.1
2014-Aug-20 10:33N 54°47' E 013°00'7 6.8
2014-Aug-20 09:34N 54°47' E 013°12'7 7.0
2014-Aug-20 08:33N 54°47' E 013°24'7 7.0
2014-Aug-20 07:33N 54°46' E 013°36'7 7.3
2014-Aug-20 06:33N 54°44' E 013°48'7 6.7
2014-Aug-20 05:33N 54°42' E 013°60'6 6.3
2014-Aug-20 04:33N 54°41' E 014°10'  

Dump ship's entire track history